sensor_id;sensor_type;location;lat;lon;timestamp;P1;durP1;ratioP1;P2;durP2;ratioP2
21758;SDS011;11041;50.854;20.580;2023-04-06T00:00:08;34.57;;;17.77;;
21758;SDS011;11041;50.854;20.580;2023-04-06T00:02:56;38.17;;;18.77;;
21758;SDS011;11041;50.854;20.580;2023-04-06T00:05:23;36.47;;;17.30;;
21758;SDS011;11041;50.854;20.580;2023-04-06T00:07:49;36.30;;;19.47;;
21758;SDS011;11041;50.854;20.580;2023-04-06T00:10:16;39.13;;;18.27;;
21758;SDS011;11041;50.854;20.580;2023-04-06T00:12:43;45.17;;;20.73;;
21758;SDS011;11041;50.854;20.580;2023-04-06T00:15:09;44.17;;;23.17;;
21758;SDS011;11041;50.854;20.580;2023-04-06T00:17:36;39.40;;;22.23;;
21758;SDS011;11041;50.854;20.580;2023-04-06T00:20:03;42.07;;;22.20;;
21758;SDS011;11041;50.854;20.580;2023-04-06T00:22:30;41.87;;;21.70;;
21758;SDS011;11041;50.854;20.580;2023-04-06T00:24:56;36.40;;;19.53;;
21758;SDS011;11041;50.854;20.580;2023-04-06T00:27:23;37.10;;;18.80;;
21758;SDS011;11041;50.854;20.580;2023-04-06T00:29:50;41.70;;;20.40;;
21758;SDS011;11041;50.854;20.580;2023-04-06T00:32:16;63.40;;;36.17;;
21758;SDS011;11041;50.854;20.580;2023-04-06T00:34:43;48.90;;;27.60;;
21758;SDS011;11041;50.854;20.580;2023-04-06T00:37:10;40.80;;;20.80;;
21758;SDS011;11041;50.854;20.580;2023-04-06T00:39:37;44.27;;;23.10;;
21758;SDS011;11041;50.854;20.580;2023-04-06T00:42:07;44.00;;;22.37;;
21758;SDS011;11041;50.854;20.580;2023-04-06T00:44:40;45.50;;;22.87;;
21758;SDS011;11041;50.854;20.580;2023-04-06T00:47:07;52.60;;;23.10;;
21758;SDS011;11041;50.854;20.580;2023-04-06T00:49:34;58.27;;;27.70;;
21758;SDS011;11041;50.854;20.580;2023-04-06T00:52:01;65.60;;;27.20;;
21758;SDS011;11041;50.854;20.580;2023-04-06T00:54:28;65.10;;;29.37;;
21758;SDS011;11041;50.854;20.580;2023-04-06T00:56:56;56.23;;;27.23;;
21758;SDS011;11041;50.854;20.580;2023-04-06T00:59:23;68.57;;;28.53;;
21758;SDS011;11041;50.854;20.580;2023-04-06T01:01:49;53.53;;;25.50;;
21758;SDS011;11041;50.854;20.580;2023-04-06T01:04:16;57.73;;;25.97;;
21758;SDS011;11041;50.854;20.580;2023-04-06T01:06:43;55.47;;;25.90;;
21758;SDS011;11041;50.854;20.580;2023-04-06T01:09:09;55.80;;;27.00;;
21758;SDS011;11041;50.854;20.580;2023-04-06T01:11:36;58.77;;;26.50;;
21758;SDS011;11041;50.854;20.580;2023-04-06T01:14:03;59.77;;;26.67;;
21758;SDS011;11041;50.854;20.580;2023-04-06T01:16:29;56.00;;;26.10;;
21758;SDS011;11041;50.854;20.580;2023-04-06T01:18:56;56.60;;;26.03;;
21758;SDS011;11041;50.854;20.580;2023-04-06T01:21:22;50.27;;;25.67;;
21758;SDS011;11041;50.854;20.580;2023-04-06T01:23:49;60.83;;;28.23;;
21758;SDS011;11041;50.854;20.580;2023-04-06T01:26:15;57.43;;;26.57;;
21758;SDS011;11041;50.854;20.580;2023-04-06T01:28:42;52.23;;;24.93;;
21758;SDS011;11041;50.854;20.580;2023-04-06T01:31:10;54.07;;;25.77;;
21758;SDS011;11041;50.854;20.580;2023-04-06T01:33:36;54.03;;;25.10;;
21758;SDS011;11041;50.854;20.580;2023-04-06T01:36:03;47.80;;;24.50;;
21758;SDS011;11041;50.854;20.580;2023-04-06T01:38:30;57.13;;;27.00;;
21758;SDS011;11041;50.854;20.580;2023-04-06T01:40:57;51.47;;;25.80;;
21758;SDS011;11041;50.854;20.580;2023-04-06T01:43:23;50.83;;;26.27;;
21758;SDS011;11041;50.854;20.580;2023-04-06T01:45:50;49.77;;;23.60;;
21758;SDS011;11041;50.854;20.580;2023-04-06T01:48:16;56.00;;;25.60;;
21758;SDS011;11041;50.854;20.580;2023-04-06T01:50:43;51.90;;;25.53;;
21758;SDS011;11041;50.854;20.580;2023-04-06T01:53:09;55.17;;;26.23;;
21758;SDS011;11041;50.854;20.580;2023-04-06T01:55:36;60.97;;;27.27;;
21758;SDS011;11041;50.854;20.580;2023-04-06T01:58:03;57.27;;;25.27;;
21758;SDS011;11041;50.854;20.580;2023-04-06T02:00:29;49.67;;;24.83;;
21758;SDS011;11041;50.854;20.580;2023-04-06T02:02:55;53.27;;;25.57;;
21758;SDS011;11041;50.854;20.580;2023-04-06T02:05:22;50.57;;;23.57;;
21758;SDS011;11041;50.854;20.580;2023-04-06T02:07:48;54.90;;;24.13;;
21758;SDS011;11041;50.854;20.580;2023-04-06T02:10:15;47.30;;;24.63;;
21758;SDS011;11041;50.854;20.580;2023-04-06T02:12:41;53.57;;;22.83;;
21758;SDS011;11041;50.854;20.580;2023-04-06T02:15:08;52.73;;;26.17;;
21758;SDS011;11041;50.854;20.580;2023-04-06T02:17:35;43.17;;;21.70;;
21758;SDS011;11041;50.854;20.580;2023-04-06T02:20:01;52.13;;;25.47;;
21758;SDS011;11041;50.854;20.580;2023-04-06T02:22:28;58.77;;;25.80;;
21758;SDS011;11041;50.854;20.580;2023-04-06T02:24:54;51.03;;;24.60;;
21758;SDS011;11041;50.854;20.580;2023-04-06T02:27:21;53.83;;;26.90;;
21758;SDS011;11041;50.854;20.580;2023-04-06T02:29:47;47.43;;;23.40;;
21758;SDS011;11041;50.854;20.580;2023-04-06T02:32:14;55.83;;;25.20;;
21758;SDS011;11041;50.854;20.580;2023-04-06T02:34:41;55.50;;;26.53;;
21758;SDS011;11041;50.854;20.580;2023-04-06T02:37:07;55.87;;;26.17;;
21758;SDS011;11041;50.854;20.580;2023-04-06T02:39:33;48.33;;;26.13;;
21758;SDS011;11041;50.854;20.580;2023-04-06T02:42:00;48.93;;;25.60;;
21758;SDS011;11041;50.854;20.580;2023-04-06T02:44:27;46.40;;;23.47;;
21758;SDS011;11041;50.854;20.580;2023-04-06T02:46:53;50.20;;;23.57;;
21758;SDS011;11041;50.854;20.580;2023-04-06T02:49:20;49.53;;;25.70;;
21758;SDS011;11041;50.854;20.580;2023-04-06T02:51:47;48.13;;;24.50;;
21758;SDS011;11041;50.854;20.580;2023-04-06T02:54:13;49.53;;;24.37;;
21758;SDS011;11041;50.854;20.580;2023-04-06T02:56:40;44.17;;;22.53;;
21758;SDS011;11041;50.854;20.580;2023-04-06T02:59:06;43.50;;;20.50;;
21758;SDS011;11041;50.854;20.580;2023-04-06T03:01:33;46.37;;;22.07;;
21758;SDS011;11041;50.854;20.580;2023-04-06T03:03:59;50.30;;;23.73;;
21758;SDS011;11041;50.854;20.580;2023-04-06T03:06:26;54.43;;;24.50;;
21758;SDS011;11041;50.854;20.580;2023-04-06T03:08:52;53.67;;;24.87;;
21758;SDS011;11041;50.854;20.580;2023-04-06T03:11:19;50.63;;;23.80;;
21758;SDS011;11041;50.854;20.580;2023-04-06T03:13:46;59.63;;;27.37;;
21758;SDS011;11041;50.854;20.580;2023-04-06T03:16:12;50.47;;;26.10;;
21758;SDS011;11041;50.854;20.580;2023-04-06T03:18:39;46.60;;;24.43;;
21758;SDS011;11041;50.854;20.580;2023-04-06T03:21:05;45.10;;;21.67;;
21758;SDS011;11041;50.854;20.580;2023-04-06T03:23:32;48.13;;;22.83;;
21758;SDS011;11041;50.854;20.580;2023-04-06T03:25:58;46.63;;;22.47;;
21758;SDS011;11041;50.854;20.580;2023-04-06T03:28:25;45.83;;;23.57;;
21758;SDS011;11041;50.854;20.580;2023-04-06T03:30:51;46.77;;;23.43;;
21758;SDS011;11041;50.854;20.580;2023-04-06T03:33:18;52.07;;;23.10;;
21758;SDS011;11041;50.854;20.580;2023-04-06T03:35:44;49.87;;;24.70;;
21758;SDS011;11041;50.854;20.580;2023-04-06T03:38:11;58.33;;;27.30;;
21758;SDS011;11041;50.854;20.580;2023-04-06T03:40:37;50.60;;;24.50;;
21758;SDS011;11041;50.854;20.580;2023-04-06T03:43:04;53.23;;;24.43;;
21758;SDS011;11041;50.854;20.580;2023-04-06T03:45:31;49.27;;;25.10;;
21758;SDS011;11041;50.854;20.580;2023-04-06T03:47:57;50.70;;;22.73;;
21758;SDS011;11041;50.854;20.580;2023-04-06T03:50:24;51.77;;;26.07;;
21758;SDS011;11041;50.854;20.580;2023-04-06T03:52:50;59.13;;;26.57;;
21758;SDS011;11041;50.854;20.580;2023-04-06T03:55:17;63.40;;;27.70;;
21758;SDS011;11041;50.854;20.580;2023-04-06T03:57:43;48.43;;;25.90;;
21758;SDS011;11041;50.854;20.580;2023-04-06T04:00:10;54.40;;;28.43;;
21758;SDS011;11041;50.854;20.580;2023-04-06T04:02:38;59.43;;;29.47;;
21758;SDS011;11041;50.854;20.580;2023-04-06T04:05:05;63.93;;;29.43;;
21758;SDS011;11041;50.854;20.580;2023-04-06T04:07:32;65.57;;;32.33;;
21758;SDS011;11041;50.854;20.580;2023-04-06T04:09:58;67.87;;;34.37;;
21758;SDS011;11041;50.854;20.580;2023-04-06T04:12:25;65.67;;;32.70;;
21758;SDS011;11041;50.854;20.580;2023-04-06T04:14:52;75.00;;;35.00;;
21758;SDS011;11041;50.854;20.580;2023-04-06T04:17:19;68.63;;;32.97;;
21758;SDS011;11041;50.854;20.580;2023-04-06T04:19:47;61.20;;;31.93;;
21758;SDS011;11041;50.854;20.580;2023-04-06T04:22:13;60.60;;;29.67;;
21758;SDS011;11041;50.854;20.580;2023-04-06T04:24:40;61.07;;;31.33;;
21758;SDS011;11041;50.854;20.580;2023-04-06T04:27:06;59.37;;;30.53;;
21758;SDS011;11041;50.854;20.580;2023-04-06T04:29:33;61.20;;;30.93;;
21758;SDS011;11041;50.854;20.580;2023-04-06T04:32:00;57.53;;;30.37;;
21758;SDS011;11041;50.854;20.580;2023-04-06T04:34:27;56.50;;;26.90;;
21758;SDS011;11041;50.854;20.580;2023-04-06T04:36:54;58.03;;;28.93;;
21758;SDS011;11041;50.854;20.580;2023-04-06T04:39:21;59.10;;;29.83;;
21758;SDS011;11041;50.854;20.580;2023-04-06T04:41:47;64.63;;;30.07;;
21758;SDS011;11041;50.854;20.580;2023-04-06T04:44:14;52.80;;;26.63;;
21758;SDS011;11041;50.854;20.580;2023-04-06T04:46:41;50.17;;;26.60;;
21758;SDS011;11041;50.854;20.580;2023-04-06T04:49:07;54.07;;;27.37;;
21758;SDS011;11041;50.854;20.580;2023-04-06T04:51:34;49.97;;;26.53;;
21758;SDS011;11041;50.854;20.580;2023-04-06T04:54:02;57.00;;;29.40;;
21758;SDS011;11041;50.854;20.580;2023-04-06T04:56:28;52.47;;;27.00;;
21758;SDS011;11041;50.854;20.580;2023-04-06T04:58:55;58.47;;;28.43;;
21758;SDS011;11041;50.854;20.580;2023-04-06T05:01:22;78.30;;;37.30;;
21758;SDS011;11041;50.854;20.580;2023-04-06T05:03:48;69.97;;;33.37;;
21758;SDS011;11041;50.854;20.580;2023-04-06T05:06:15;85.73;;;39.37;;
21758;SDS011;11041;50.854;20.580;2023-04-06T05:08:42;119.63;;;51.83;;
21758;SDS011;11041;50.854;20.580;2023-04-06T05:11:09;93.97;;;43.93;;
21758;SDS011;11041;50.854;20.580;2023-04-06T05:13:36;79.07;;;35.63;;
21758;SDS011;11041;50.854;20.580;2023-04-06T05:16:02;64.40;;;30.00;;
21758;SDS011;11041;50.854;20.580;2023-04-06T05:18:29;47.67;;;25.17;;
21758;SDS011;11041;50.854;20.580;2023-04-06T05:20:56;36.37;;;16.30;;
21758;SDS011;11041;50.854;20.580;2023-04-06T05:23:22;44.33;;;25.13;;
21758;SDS011;11041;50.854;20.580;2023-04-06T05:25:49;38.77;;;21.60;;
21758;SDS011;11041;50.854;20.580;2023-04-06T05:28:16;42.00;;;22.70;;
21758;SDS011;11041;50.854;20.580;2023-04-06T05:30:44;43.47;;;22.67;;
21758;SDS011;11041;50.854;20.580;2023-04-06T05:33:11;42.63;;;23.53;;
21758;SDS011;11041;50.854;20.580;2023-04-06T05:35:38;42.17;;;23.77;;
21758;SDS011;11041;50.854;20.580;2023-04-06T05:38:07;37.57;;;22.27;;
21758;SDS011;11041;50.854;20.580;2023-04-06T05:40:38;46.23;;;27.33;;
21758;SDS011;11041;50.854;20.580;2023-04-06T05:43:09;35.50;;;19.67;;
21758;SDS011;11041;50.854;20.580;2023-04-06T05:45:36;37.07;;;24.87;;
21758;SDS011;11041;50.854;20.580;2023-04-06T05:48:03;40.70;;;24.50;;
21758;SDS011;11041;50.854;20.580;2023-04-06T05:50:31;37.10;;;22.03;;
21758;SDS011;11041;50.854;20.580;2023-04-06T05:52:58;36.67;;;20.87;;
21758;SDS011;11041;50.854;20.580;2023-04-06T05:55:25;33.03;;;18.67;;
21758;SDS011;11041;50.854;20.580;2023-04-06T05:57:53;37.57;;;20.83;;
21758;SDS011;11041;50.854;20.580;2023-04-06T06:00:20;34.40;;;20.13;;
21758;SDS011;11041;50.854;20.580;2023-04-06T06:02:47;35.30;;;20.27;;
21758;SDS011;11041;50.854;20.580;2023-04-06T06:05:14;39.77;;;22.13;;
21758;SDS011;11041;50.854;20.580;2023-04-06T06:07:41;35.27;;;19.20;;
21758;SDS011;11041;50.854;20.580;2023-04-06T06:10:08;31.47;;;20.20;;
21758;SDS011;11041;50.854;20.580;2023-04-06T06:12:36;33.87;;;20.97;;
21758;SDS011;11041;50.854;20.580;2023-04-06T06:15:03;28.93;;;16.83;;
21758;SDS011;11041;50.854;20.580;2023-04-06T06:17:31;38.30;;;23.23;;
21758;SDS011;11041;50.854;20.580;2023-04-06T06:19:58;33.73;;;20.70;;
21758;SDS011;11041;50.854;20.580;2023-04-06T06:22:26;30.43;;;22.87;;
21758;SDS011;11041;50.854;20.580;2023-04-06T06:24:53;30.05;;;19.05;;
21758;SDS011;11041;50.854;20.580;2023-04-06T06:27:21;25.07;;;16.63;;
21758;SDS011;11041;50.854;20.580;2023-04-06T06:29:50;32.83;;;20.17;;
21758;SDS011;11041;50.854;20.580;2023-04-06T06:32:18;31.33;;;16.90;;
21758;SDS011;11041;50.854;20.580;2023-04-06T06:34:45;31.95;;;19.27;;
21758;SDS011;11041;50.854;20.580;2023-04-06T06:37:13;27.00;;;16.40;;
21758;SDS011;11041;50.854;20.580;2023-04-06T06:39:39;35.97;;;20.88;;
21758;SDS011;11041;50.854;20.580;2023-04-06T06:42:07;30.58;;;19.85;;
21758;SDS011;11041;50.854;20.580;2023-04-06T06:44:34;23.85;;;17.42;;
21758;SDS011;11041;50.854;20.580;2023-04-06T06:47:01;29.15;;;17.38;;
21758;SDS011;11041;50.854;20.580;2023-04-06T06:49:32;34.73;;;20.60;;
21758;SDS011;11041;50.854;20.580;2023-04-06T06:51:59;28.58;;;18.48;;
21758;SDS011;11041;50.854;20.580;2023-04-06T06:54:25;27.25;;;18.20;;
21758;SDS011;11041;50.854;20.580;2023-04-06T06:56:53;26.43;;;15.30;;
21758;SDS011;11041;50.854;20.580;2023-04-06T06:59:20;32.55;;;21.70;;
21758;SDS011;11041;50.854;20.580;2023-04-06T07:01:49;30.20;;;16.35;;
21758;SDS011;11041;50.854;20.580;2023-04-06T07:04:17;28.10;;;18.60;;
21758;SDS011;11041;50.854;20.580;2023-04-06T07:06:45;25.33;;;13.38;;
21758;SDS011;11041;50.854;20.580;2023-04-06T07:09:12;26.75;;;14.60;;
21758;SDS011;11041;50.854;20.580;2023-04-06T07:11:40;24.88;;;15.27;;
21758;SDS011;11041;50.854;20.580;2023-04-06T07:14:07;23.30;;;15.50;;
21758;SDS011;11041;50.854;20.580;2023-04-06T07:16:34;23.70;;;13.15;;
21758;SDS011;11041;50.854;20.580;2023-04-06T07:19:01;23.90;;;12.68;;
21758;SDS011;11041;50.854;20.580;2023-04-06T07:21:28;28.08;;;16.95;;
21758;SDS011;11041;50.854;20.580;2023-04-06T07:23:55;34.13;;;21.05;;
21758;SDS011;11041;50.854;20.580;2023-04-06T07:26:22;21.08;;;11.48;;
21758;SDS011;11041;50.854;20.580;2023-04-06T07:28:49;18.45;;;12.95;;
21758;SDS011;11041;50.854;20.580;2023-04-06T07:31:16;18.52;;;10.65;;
21758;SDS011;11041;50.854;20.580;2023-04-06T07:33:43;20.17;;;12.57;;
21758;SDS011;11041;50.854;20.580;2023-04-06T07:36:10;13.13;;;10.02;;
21758;SDS011;11041;50.854;20.580;2023-04-06T07:38:37;14.15;;;9.23;;
21758;SDS011;11041;50.854;20.580;2023-04-06T07:41:05;16.88;;;10.98;;
21758;SDS011;11041;50.854;20.580;2023-04-06T07:43:33;17.13;;;10.52;;
21758;SDS011;11041;50.854;20.580;2023-04-06T07:46:02;17.27;;;11.05;;
21758;SDS011;11041;50.854;20.580;2023-04-06T07:48:29;14.20;;;8.88;;
21758;SDS011;11041;50.854;20.580;2023-04-06T07:51:03;21.20;;;11.55;;
21758;SDS011;11041;50.854;20.580;2023-04-06T07:53:32;16.63;;;11.25;;
21758;SDS011;11041;50.854;20.580;2023-04-06T07:55:59;17.30;;;9.77;;
21758;SDS011;11041;50.854;20.580;2023-04-06T07:58:26;19.02;;;11.55;;
21758;SDS011;11041;50.854;20.580;2023-04-06T08:00:54;15.13;;;10.32;;
21758;SDS011;11041;50.854;20.580;2023-04-06T08:03:21;16.02;;;10.30;;
21758;SDS011;11041;50.854;20.580;2023-04-06T08:05:54;20.38;;;10.57;;
21758;SDS011;11041;50.854;20.580;2023-04-06T08:08:21;15.57;;;9.60;;
21758;SDS011;11041;50.854;20.580;2023-04-06T08:10:48;15.02;;;9.30;;
21758;SDS011;11041;50.854;20.580;2023-04-06T08:13:15;16.05;;;8.98;;
21758;SDS011;11041;50.854;20.580;2023-04-06T08:15:42;18.92;;;9.52;;
21758;SDS011;11041;50.854;20.580;2023-04-06T08:18:11;14.40;;;10.13;;
21758;SDS011;11041;50.854;20.580;2023-04-06T08:20:40;12.88;;;8.30;;
21758;SDS011;11041;50.854;20.580;2023-04-06T08:23:07;24.10;;;13.43;;
21758;SDS011;11041;50.854;20.580;2023-04-06T08:25:35;11.18;;;7.30;;
21758;SDS011;11041;50.854;20.580;2023-04-06T08:28:03;17.92;;;9.43;;
21758;SDS011;11041;50.854;20.580;2023-04-06T08:30:30;12.50;;;7.45;;
21758;SDS011;11041;50.854;20.580;2023-04-06T08:32:57;13.70;;;10.10;;
21758;SDS011;11041;50.854;20.580;2023-04-06T08:35:25;16.48;;;10.20;;
21758;SDS011;11041;50.854;20.580;2023-04-06T08:37:53;18.77;;;11.23;;
21758;SDS011;11041;50.854;20.580;2023-04-06T08:40:20;9.95;;;6.72;;
21758;SDS011;11041;50.854;20.580;2023-04-06T08:42:56;10.23;;;8.45;;
21758;SDS011;11041;50.854;20.580;2023-04-06T08:45:29;45.50;;;26.42;;
21758;SDS011;11041;50.854;20.580;2023-04-06T08:47:56;10.00;;;8.77;;
21758;SDS011;11041;50.854;20.580;2023-04-06T08:50:27;13.80;;;10.32;;
21758;SDS011;11041;50.854;20.580;2023-04-06T08:52:56;15.55;;;9.30;;
21758;SDS011;11041;50.854;20.580;2023-04-06T08:55:24;14.23;;;9.10;;
21758;SDS011;11041;50.854;20.580;2023-04-06T08:57:51;13.25;;;10.15;;
21758;SDS011;11041;50.854;20.580;2023-04-06T09:00:21;13.60;;;8.77;;
21758;SDS011;11041;50.854;20.580;2023-04-06T09:02:49;21.60;;;10.30;;
21758;SDS011;11041;50.854;20.580;2023-04-06T09:05:21;14.48;;;9.85;;
21758;SDS011;11041;50.854;20.580;2023-04-06T09:07:51;15.90;;;11.15;;
21758;SDS011;11041;50.854;20.580;2023-04-06T09:10:18;14.80;;;9.00;;
21758;SDS011;11041;50.854;20.580;2023-04-06T09:12:46;14.60;;;9.10;;
21758;SDS011;11041;50.854;20.580;2023-04-06T09:15:20;19.75;;;12.40;;
21758;SDS011;11041;50.854;20.580;2023-04-06T09:17:47;18.40;;;11.18;;
21758;SDS011;11041;50.854;20.580;2023-04-06T09:20:13;15.10;;;9.50;;
21758;SDS011;11041;50.854;20.580;2023-04-06T09:22:40;16.52;;;9.95;;
21758;SDS011;11041;50.854;20.580;2023-04-06T09:25:17;16.83;;;10.60;;
21758;SDS011;11041;50.854;20.580;2023-04-06T09:27:49;18.38;;;14.13;;
21758;SDS011;11041;50.854;20.580;2023-04-06T09:30:29;14.95;;;8.40;;
21758;SDS011;11041;50.854;20.580;2023-04-06T09:32:56;13.95;;;8.05;;
21758;SDS011;11041;50.854;20.580;2023-04-06T09:35:25;13.88;;;8.95;;
21758;SDS011;11041;50.854;20.580;2023-04-06T09:37:52;9.40;;;6.90;;
21758;SDS011;11041;50.854;20.580;2023-04-06T09:40:21;12.45;;;8.70;;
21758;SDS011;11041;50.854;20.580;2023-04-06T09:42:48;13.43;;;6.07;;
21758;SDS011;11041;50.854;20.580;2023-04-06T09:45:18;12.25;;;7.93;;
21758;SDS011;11041;50.854;20.580;2023-04-06T09:47:46;15.55;;;10.15;;
21758;SDS011;11041;50.854;20.580;2023-04-06T09:50:13;17.20;;;10.25;;
21758;SDS011;11041;50.854;20.580;2023-04-06T09:52:48;18.98;;;12.68;;
21758;SDS011;11041;50.854;20.580;2023-04-06T09:55:25;17.35;;;11.23;;
21758;SDS011;11041;50.854;20.580;2023-04-06T09:58:17;14.90;;;10.93;;
21758;SDS011;11041;50.854;20.580;2023-04-06T10:03:45;16.33;;;9.88;;
21758;SDS011;11041;50.854;20.580;2023-04-06T10:06:59;14.98;;;11.50;;
21758;SDS011;11041;50.854;20.580;2023-04-06T10:09:29;20.48;;;13.90;;
21758;SDS011;11041;50.854;20.580;2023-04-06T10:12:05;10.38;;;7.35;;
21758;SDS011;11041;50.854;20.580;2023-04-06T10:14:35;20.23;;;12.68;;
21758;SDS011;11041;50.854;20.580;2023-04-06T10:17:04;15.00;;;11.18;;
21758;SDS011;11041;50.854;20.580;2023-04-06T10:19:39;13.88;;;10.77;;
21758;SDS011;11041;50.854;20.580;2023-04-06T10:26:03;16.20;;;12.05;;
21758;SDS011;11041;50.854;20.580;2023-04-06T10:28:49;23.92;;;15.02;;
21758;SDS011;11041;50.854;20.580;2023-04-06T10:31:39;22.48;;;12.82;;
21758;SDS011;11041;50.854;20.580;2023-04-06T10:34:14;23.95;;;15.88;;
21758;SDS011;11041;50.854;20.580;2023-04-06T10:40:03;27.38;;;14.70;;
21758;SDS011;11041;50.854;20.580;2023-04-06T10:42:37;27.70;;;16.45;;
21758;SDS011;11041;50.854;20.580;2023-04-06T10:45:07;21.73;;;15.30;;
21758;SDS011;11041;50.854;20.580;2023-04-06T10:47:48;23.48;;;16.25;;
21758;SDS011;11041;50.854;20.580;2023-04-06T10:50:17;23.45;;;16.77;;
21758;SDS011;11041;50.854;20.580;2023-04-06T10:52:45;20.50;;;13.35;;
21758;SDS011;11041;50.854;20.580;2023-04-06T10:55:13;24.90;;;18.52;;
21758;SDS011;11041;50.854;20.580;2023-04-06T10:57:41;22.02;;;14.38;;
21758;SDS011;11041;50.854;20.580;2023-04-06T11:00:08;26.63;;;17.77;;
21758;SDS011;11041;50.854;20.580;2023-04-06T11:02:38;26.13;;;15.68;;
21758;SDS011;11041;50.854;20.580;2023-04-06T11:05:22;24.77;;;13.27;;
21758;SDS011;11041;50.854;20.580;2023-04-06T11:07:49;24.75;;;17.25;;
21758;SDS011;11041;50.854;20.580;2023-04-06T11:10:20;21.65;;;14.45;;
21758;SDS011;11041;50.854;20.580;2023-04-06T11:12:56;24.95;;;17.77;;
21758;SDS011;11041;50.854;20.580;2023-04-06T11:15:23;25.60;;;19.85;;
21758;SDS011;11041;50.854;20.580;2023-04-06T11:17:49;24.08;;;13.40;;
21758;SDS011;11041;50.854;20.580;2023-04-06T11:20:16;25.05;;;18.50;;
21758;SDS011;11041;50.854;20.580;2023-04-06T11:22:49;35.00;;;22.63;;
21758;SDS011;11041;50.854;20.580;2023-04-06T11:25:30;26.00;;;16.85;;
21758;SDS011;11041;50.854;20.580;2023-04-06T11:27:57;26.88;;;18.13;;
21758;SDS011;11041;50.854;20.580;2023-04-06T11:30:24;31.23;;;24.05;;
21758;SDS011;11041;50.854;20.580;2023-04-06T11:32:50;38.25;;;26.90;;
21758;SDS011;11041;50.854;20.580;2023-04-06T11:35:21;29.75;;;19.83;;
21758;SDS011;11041;50.854;20.580;2023-04-06T11:37:50;24.30;;;16.83;;
21758;SDS011;11041;50.854;20.580;2023-04-06T11:40:23;21.77;;;17.10;;
21758;SDS011;11041;50.854;20.580;2023-04-06T11:42:53;23.35;;;18.05;;
21758;SDS011;11041;50.854;20.580;2023-04-06T11:45:23;28.67;;;20.77;;
21758;SDS011;11041;50.854;20.580;2023-04-06T11:47:57;30.67;;;21.67;;
21758;SDS011;11041;50.854;20.580;2023-04-06T11:50:31;22.65;;;15.70;;
21758;SDS011;11041;50.854;20.580;2023-04-06T11:53:01;25.10;;;16.80;;
21758;SDS011;11041;50.854;20.580;2023-04-06T11:55:36;25.00;;;17.42;;
21758;SDS011;11041;50.854;20.580;2023-04-06T11:58:04;19.27;;;14.30;;
21758;SDS011;11041;50.854;20.580;2023-04-06T12:00:32;21.45;;;14.50;;
21758;SDS011;11041;50.854;20.580;2023-04-06T12:03:00;25.00;;;17.52;;
21758;SDS011;11041;50.854;20.580;2023-04-06T12:05:27;25.45;;;16.05;;
21758;SDS011;11041;50.854;20.580;2023-04-06T12:07:54;18.35;;;12.75;;
21758;SDS011;11041;50.854;20.580;2023-04-06T12:10:21;28.73;;;20.60;;
21758;SDS011;11041;50.854;20.580;2023-04-06T12:12:47;22.13;;;17.00;;
21758;SDS011;11041;50.854;20.580;2023-04-06T12:15:14;20.20;;;14.75;;
21758;SDS011;11041;50.854;20.580;2023-04-06T12:17:40;21.58;;;15.52;;
21758;SDS011;11041;50.854;20.580;2023-04-06T12:20:07;24.70;;;19.27;;
21758;SDS011;11041;50.854;20.580;2023-04-06T12:22:34;24.52;;;17.25;;
21758;SDS011;11041;50.854;20.580;2023-04-06T12:25:01;17.70;;;11.93;;
21758;SDS011;11041;50.854;20.580;2023-04-06T12:27:28;22.02;;;14.82;;
21758;SDS011;11041;50.854;20.580;2023-04-06T12:29:55;23.65;;;18.92;;
21758;SDS011;11041;50.854;20.580;2023-04-06T12:32:22;24.80;;;19.13;;
21758;SDS011;11041;50.854;20.580;2023-04-06T12:34:48;26.35;;;17.20;;
21758;SDS011;11041;50.854;20.580;2023-04-06T12:37:18;32.08;;;22.90;;
21758;SDS011;11041;50.854;20.580;2023-04-06T12:39:48;23.50;;;16.38;;
21758;SDS011;11041;50.854;20.580;2023-04-06T12:42:15;29.00;;;18.67;;
21758;SDS011;11041;50.854;20.580;2023-04-06T12:44:41;34.65;;;27.65;;
21758;SDS011;11041;50.854;20.580;2023-04-06T12:47:08;31.90;;;20.67;;
21758;SDS011;11041;50.854;20.580;2023-04-06T12:49:34;51.50;;;41.28;;
21758;SDS011;11041;50.854;20.580;2023-04-06T12:52:02;62.20;;;45.47;;
21758;SDS011;11041;50.854;20.580;2023-04-06T12:54:28;80.15;;;52.15;;
21758;SDS011;11041;50.854;20.580;2023-04-06T12:56:54;42.28;;;28.95;;
21758;SDS011;11041;50.854;20.580;2023-04-06T12:59:22;23.42;;;17.83;;
21758;SDS011;11041;50.854;20.580;2023-04-06T13:01:50;30.05;;;21.73;;
21758;SDS011;11041;50.854;20.580;2023-04-06T13:04:18;32.42;;;26.05;;
21758;SDS011;11041;50.854;20.580;2023-04-06T13:06:44;42.47;;;34.33;;
21758;SDS011;11041;50.854;20.580;2023-04-06T13:09:10;24.30;;;19.27;;
21758;SDS011;11041;50.854;20.580;2023-04-06T13:11:37;24.73;;;19.35;;
21758;SDS011;11041;50.854;20.580;2023-04-06T13:14:04;30.45;;;20.58;;
21758;SDS011;11041;50.854;20.580;2023-04-06T13:16:31;22.30;;;17.45;;
21758;SDS011;11041;50.854;20.580;2023-04-06T13:18:57;25.90;;;19.80;;
21758;SDS011;11041;50.854;20.580;2023-04-06T13:21:24;33.67;;;25.83;;
21758;SDS011;11041;50.854;20.580;2023-04-06T13:23:51;35.05;;;23.63;;
21758;SDS011;11041;50.854;20.580;2023-04-06T13:26:17;30.50;;;24.02;;
21758;SDS011;11041;50.854;20.580;2023-04-06T13:28:43;29.40;;;21.98;;
21758;SDS011;11041;50.854;20.580;2023-04-06T13:31:10;28.92;;;19.70;;
21758;SDS011;11041;50.854;20.580;2023-04-06T13:33:37;29.85;;;21.88;;
21758;SDS011;11041;50.854;20.580;2023-04-06T13:36:06;32.97;;;24.00;;
21758;SDS011;11041;50.854;20.580;2023-04-06T13:38:34;26.50;;;23.13;;
21758;SDS011;11041;50.854;20.580;2023-04-06T13:41:00;27.13;;;23.42;;
21758;SDS011;11041;50.854;20.580;2023-04-06T13:43:26;29.25;;;21.20;;
21758;SDS011;11041;50.854;20.580;2023-04-06T13:45:53;37.13;;;28.98;;
21758;SDS011;11041;50.854;20.580;2023-04-06T13:48:21;31.33;;;23.75;;
21758;SDS011;11041;50.854;20.580;2023-04-06T13:50:48;52.65;;;37.30;;
21758;SDS011;11041;50.854;20.580;2023-04-06T13:53:17;46.00;;;32.35;;
21758;SDS011;11041;50.854;20.580;2023-04-06T13:55:47;74.72;;;45.70;;
21758;SDS011;11041;50.854;20.580;2023-04-06T13:58:21;112.43;;;65.45;;
21758;SDS011;11041;50.854;20.580;2023-04-06T14:00:48;62.22;;;37.30;;
21758;SDS011;11041;50.854;20.580;2023-04-06T14:03:15;41.40;;;29.75;;
21758;SDS011;11041;50.854;20.580;2023-04-06T14:05:41;37.20;;;28.23;;
21758;SDS011;11041;50.854;20.580;2023-04-06T14:08:08;31.52;;;25.45;;
21758;SDS011;11041;50.854;20.580;2023-04-06T14:10:41;35.58;;;28.95;;
21758;SDS011;11041;50.854;20.580;2023-04-06T14:13:08;39.50;;;27.60;;
21758;SDS011;11041;50.854;20.580;2023-04-06T14:15:34;36.90;;;24.17;;
21758;SDS011;11041;50.854;20.580;2023-04-06T14:18:01;34.38;;;23.25;;
21758;SDS011;11041;50.854;20.580;2023-04-06T14:20:30;37.05;;;24.50;;
21758;SDS011;11041;50.854;20.580;2023-04-06T14:23:01;34.00;;;24.58;;
21758;SDS011;11041;50.854;20.580;2023-04-06T14:25:29;34.63;;;23.25;;